Mexican Hat, Utah
Current Conditions -  °F | °C
As of 9:35 AM on Friday 19 Dec 2014 (Local Time) from KBDG Reporting Station
Clear Clear  
Wind Chill:   Ceiling: Unl
Heat Index:   Visibility: 10mi
Dew Point: -1°   Wind: 0mph
Humidity: 91%   Direction: NA
Pressure: 30.34"   Gusts: NA
Location:  37.15°N, 109.86°W
Report Text: KBDG 191635Z AUTO 00000KT 10SM CLR 00/M01 A3034 RMK AO1 T00001013
Loading
Personal Weather Stations






























Interactive Weather Map New forecast layout! Learn more

10-Day Weather Forecast

Advertisements
Track Severe Weather on mobile